createdAt,value
2023-03-03T00:01:05.216Z,16.90
2023-03-03T00:03:33.464Z,16.70
2023-03-03T00:06:02.375Z,16.57
2023-03-03T00:08:30.197Z,17.07
2023-03-03T00:10:57.502Z,17.57
2023-03-03T00:13:26.164Z,14.97
2023-03-03T00:15:54.381Z,15.67
2023-03-03T00:18:30.411Z,17.67
2023-03-03T00:21:01.099Z,15.60
2023-03-03T00:23:37.004Z,15.50
2023-03-03T00:26:29.376Z,14.60
2023-03-03T00:28:59.538Z,15.80
2023-03-03T00:31:34.711Z,14.93
2023-03-03T00:34:28.247Z,13.87
2023-03-03T00:36:57.733Z,14.50
2023-03-03T00:39:37.531Z,14.40
2023-03-03T00:42:14.461Z,15.37
2023-03-03T00:44:44.480Z,15.33
2023-03-03T00:47:26.447Z,15.53
2023-03-03T00:49:58.235Z,14.37
2023-03-03T00:52:29.377Z,15.73
2023-03-03T00:54:56.702Z,14.13
2023-03-03T00:57:24.059Z,14.17
2023-03-03T00:59:52.307Z,14.63
2023-03-03T01:02:20.106Z,14.20
2023-03-03T01:04:51.923Z,13.83
2023-03-03T01:07:19.618Z,13.53
2023-03-03T01:09:46.953Z,14.60
2023-03-03T01:12:15.065Z,14.73
2023-03-03T01:14:42.605Z,15.07
2023-03-03T01:17:09.922Z,15.67
2023-03-03T01:19:37.152Z,16.03
2023-03-03T01:22:04.486Z,16.07
2023-03-03T01:24:31.920Z,15.70
2023-03-03T01:26:59.425Z,16.23
2023-03-03T01:29:26.917Z,15.57
2023-03-03T01:31:54.704Z,16.43
2023-03-03T01:34:22.356Z,15.60
2023-03-03T01:36:49.679Z,15.27
2023-03-03T01:39:17.040Z,13.40
2023-03-03T01:41:44.398Z,14.87
2023-03-03T01:44:15.340Z,17.30
2023-03-03T01:47:11.876Z,15.63
2023-03-03T01:49:59.833Z,14.17
2023-03-03T01:52:37.486Z,12.83
2023-03-03T01:55:10.565Z,15.27
2023-03-03T01:57:42.489Z,13.40
2023-03-03T02:00:11.833Z,14.20
2023-03-03T02:02:43.106Z,12.90
2023-03-03T02:05:11.102Z,14.30
2023-03-03T02:07:38.936Z,14.27
2023-03-03T02:10:13.652Z,14.20
2023-03-03T02:12:45.390Z,15.07
2023-03-03T02:15:36.200Z,14.03
2023-03-03T02:18:14.167Z,13.50
2023-03-03T02:20:52.313Z,14.43
2023-03-03T02:23:38.174Z,13.83
2023-03-03T02:26:22.883Z,14.50
2023-03-03T02:28:55.727Z,14.27
2023-03-03T02:31:26.805Z,13.40
2023-03-03T02:33:55.851Z,13.37
2023-03-03T02:36:26.767Z,13.90
2023-03-03T02:39:02.493Z,15.17
2023-03-03T02:41:56.200Z,12.27
2023-03-03T02:44:30.180Z,11.93
2023-03-03T02:46:59.329Z,13.50
2023-03-03T02:49:32.068Z,14.53
2023-03-03T02:52:00.927Z,12.70
2023-03-03T02:54:30.899Z,14.00
2023-03-03T02:57:00.653Z,14.07
2023-03-03T02:59:28.519Z,12.27
2023-03-03T03:01:59.169Z,13.90
2023-03-03T03:04:27.697Z,13.70
2023-03-03T03:06:56.249Z,14.27
2023-03-03T03:09:26.281Z,14.60
2023-03-03T03:11:55.096Z,13.87
2023-03-03T03:14:25.857Z,12.77
2023-03-03T03:16:55.197Z,14.17
2023-03-03T03:19:22.867Z,14.23
2023-03-03T03:21:50.361Z,14.30
2023-03-03T03:24:18.505Z,15.37
2023-03-03T03:26:52.841Z,11.90
2023-03-03T03:29:21.902Z,12.40
2023-03-03T03:31:49.468Z,13.47
2023-03-03T03:34:16.902Z,12.97
2023-03-03T03:36:46.817Z,12.17
2023-03-03T03:39:16.045Z,13.60
2023-03-03T03:41:46.977Z,13.30
2023-03-03T03:44:14.307Z,13.00
2023-03-03T03:46:41.808Z,13.90
2023-03-03T03:49:11.134Z,12.03
2023-03-03T03:51:41.406Z,13.97
2023-03-03T03:54:11.749Z,12.57
2023-03-03T03:56:39.801Z,16.00
2023-03-03T03:59:07.756Z,15.60
2023-03-03T04:01:35.874Z,16.27
2023-03-03T04:04:04.954Z,17.37
2023-03-03T04:06:32.529Z,15.73
2023-03-03T04:09:00.397Z,16.87
2023-03-03T04:11:29.832Z,15.03
2023-03-03T04:13:57.165Z,15.30
2023-03-03T04:16:24.902Z,14.73
2023-03-03T04:18:52.401Z,15.30
2023-03-03T04:21:21.372Z,16.60
2023-03-03T04:23:49.718Z,15.70
2023-03-03T04:26:18.019Z,15.33
2023-03-03T04:28:46.647Z,16.97
2023-03-03T04:31:14.249Z,16.90
2023-03-03T04:33:42.087Z,17.70
2023-03-03T04:36:09.787Z,17.13
2023-03-03T04:38:38.362Z,16.87
2023-03-03T04:41:06.219Z,18.73
2023-03-03T04:43:37.215Z,18.57
2023-03-03T04:46:05.683Z,17.23
2023-03-03T04:48:34.101Z,16.33
2023-03-03T04:51:01.768Z,17.03
2023-03-03T04:53:29.425Z,21.03
2023-03-03T04:55:57.254Z,15.53
2023-03-03T04:58:24.730Z,15.90
2023-03-03T05:00:55.761Z,17.57
2023-03-03T05:03:23.780Z,19.33
2023-03-03T05:05:51.458Z,19.07
2023-03-03T05:08:19.205Z,18.00
2023-03-03T05:10:46.643Z,19.80
2023-03-03T05:13:16.930Z,20.90
2023-03-03T05:15:49.011Z,19.53
2023-03-03T05:18:16.446Z,19.33
2023-03-03T05:20:43.858Z,18.53
2023-03-03T05:23:11.381Z,18.23
2023-03-03T05:25:41.956Z,19.47
2023-03-03T05:28:10.591Z,20.70
2023-03-03T05:30:38.288Z,20.03
2023-03-03T05:33:06.169Z,21.30
2023-03-03T05:35:34.709Z,21.67
2023-03-03T05:38:05.345Z,21.67
2023-03-03T05:40:33.805Z,20.57
2023-03-03T05:43:02.648Z,21.40
2023-03-03T05:45:30.054Z,22.93
2023-03-03T05:47:57.578Z,19.23
2023-03-03T05:50:25.087Z,23.43
2023-03-03T05:52:53.503Z,23.47
2023-03-03T05:55:21.003Z,20.03
2023-03-03T05:57:48.459Z,22.03
2023-03-03T06:00:17.165Z,22.03
2023-03-03T06:02:44.695Z,21.23
2023-03-03T06:05:12.303Z,20.50
2023-03-03T06:07:40.512Z,21.83
2023-03-03T06:10:08.826Z,21.43
2023-03-03T06:12:39.087Z,22.30
2023-03-03T06:15:07.718Z,22.63
2023-03-03T06:17:35.365Z,22.67
2023-03-03T06:20:04.150Z,24.50
2023-03-03T06:22:31.621Z,24.40
2023-03-03T06:24:59.337Z,25.93
2023-03-03T06:27:27.504Z,24.63
2023-03-03T06:29:54.982Z,23.87
2023-03-03T06:32:22.638Z,22.93
2023-03-03T06:34:50.451Z,23.03
2023-03-03T06:37:18.068Z,24.37
2023-03-03T06:39:45.551Z,24.97
2023-03-03T06:42:13.211Z,26.00
2023-03-03T06:44:40.626Z,25.63
2023-03-03T06:47:07.976Z,25.23
2023-03-03T06:49:35.414Z,27.90
2023-03-03T06:52:12.494Z,23.80
2023-03-03T06:54:40.341Z,25.20
2023-03-03T06:57:17.893Z,22.00
2023-03-03T06:59:46.859Z,23.47
2023-03-03T07:02:17.161Z,21.00
2023-03-03T07:04:47.003Z,21.10
2023-03-03T07:07:24.731Z,19.33
2023-03-03T07:09:57.093Z,22.40
2023-03-03T07:12:28.998Z,19.63
2023-03-03T07:15:13.576Z,20.30
2023-03-03T07:17:51.212Z,20.15
2023-03-03T07:20:33.064Z,19.77
2023-03-03T07:23:00.768Z,19.08
2023-03-03T07:25:35.442Z,21.13
2023-03-03T07:28:26.596Z,19.42
2023-03-03T07:30:56.515Z,19.48
2023-03-03T07:33:35.370Z,17.85
2023-03-03T07:36:04.204Z,18.88
2023-03-03T07:38:31.946Z,19.90
2023-03-03T07:41:02.973Z,18.65
2023-03-03T07:43:51.044Z,17.55
2023-03-03T07:46:22.798Z,18.80
2023-03-03T07:48:52.430Z,17.88
2023-03-03T07:51:36.865Z,16.95
2023-03-03T07:54:40.310Z,19.33
2023-03-03T07:57:20.018Z,17.35
2023-03-03T08:00:00.010Z,17.88
2023-03-03T08:03:00.633Z,20.75
2023-03-03T08:05:30.497Z,18.92
2023-03-03T08:08:11.148Z,18.30
2023-03-03T08:10:52.449Z,16.63
2023-03-03T08:13:25.264Z,15.25
2023-03-03T08:16:00.580Z,14.98
2023-03-03T08:18:30.533Z,17.27
2023-03-03T08:21:17.541Z,15.95
2023-03-03T08:23:45.062Z,16.38
2023-03-03T08:26:14.102Z,16.55
2023-03-03T08:28:41.548Z,16.33
2023-03-03T08:31:18.532Z,16.27
2023-03-03T08:33:52.757Z,16.35
2023-03-03T08:36:20.091Z,17.27
2023-03-03T08:38:47.580Z,16.15
2023-03-03T08:41:15.050Z,15.50
2023-03-03T08:43:45.318Z,17.50
2023-03-03T08:46:12.703Z,16.30
2023-03-03T08:48:40.644Z,18.10
2023-03-03T08:51:08.839Z,16.27
2023-03-03T08:53:38.229Z,17.65
2023-03-03T08:56:06.912Z,15.52
2023-03-03T08:58:35.979Z,16.60
2023-03-03T09:01:04.888Z,15.32
2023-03-03T09:03:32.458Z,15.88
2023-03-03T09:05:59.874Z,17.02
2023-03-03T09:08:27.496Z,15.80
2023-03-03T09:10:54.978Z,17.35
2023-03-03T09:13:22.556Z,15.32
2023-03-03T09:15:50.441Z,16.00
2023-03-03T09:18:31.067Z,16.90
2023-03-03T09:20:58.632Z,16.48
2023-03-03T09:23:36.215Z,14.95
2023-03-03T09:26:26.902Z,16.85
2023-03-03T09:28:56.420Z,15.95
2023-03-03T09:31:39.789Z,15.27
2023-03-03T09:34:22.353Z,16.50
2023-03-03T09:36:52.769Z,15.95
2023-03-03T09:39:25.446Z,16.05
2023-03-03T09:42:04.216Z,16.45
2023-03-03T09:45:09.661Z,16.55
2023-03-03T09:47:46.916Z,17.50
2023-03-03T09:50:29.301Z,15.48
2023-03-03T09:53:24.414Z,17.50
2023-03-03T09:55:59.266Z,15.48
2023-03-03T09:59:18.021Z,17.10
2023-03-03T10:01:54.267Z,18.33
2023-03-03T10:04:47.404Z,15.80
2023-03-03T10:07:38.978Z,14.93
2023-03-03T10:10:34.080Z,15.90
2023-03-03T10:13:07.340Z,15.93
2023-03-03T10:16:00.700Z,16.35
2023-03-03T10:18:45.752Z,14.93
2023-03-03T10:21:25.521Z,15.38
2023-03-03T10:24:03.944Z,18.20
2023-03-03T10:26:44.675Z,17.17
2023-03-03T10:29:22.546Z,16.40
2023-03-03T10:32:49.532Z,14.15
2023-03-03T10:35:35.493Z,15.73
2023-03-03T10:38:32.240Z,14.43
2023-03-03T10:41:35.249Z,15.47
2023-03-03T10:44:22.818Z,15.90
2023-03-03T10:46:58.981Z,15.00
2023-03-03T10:49:41.803Z,14.70
2023-03-03T10:52:31.488Z,15.20
2023-03-03T10:55:23.231Z,14.73
2023-03-03T10:58:07.849Z,15.10
2023-03-03T11:00:44.994Z,15.47
2023-03-03T11:03:33.792Z,14.97
2023-03-03T11:06:33.812Z,13.32
2023-03-03T11:09:30.928Z,14.93
2023-03-03T11:12:28.338Z,17.43
2023-03-03T11:15:04.929Z,15.52
2023-03-03T11:17:47.387Z,15.37
2023-03-03T11:20:33.617Z,14.10
2023-03-03T11:23:25.546Z,13.30
2023-03-03T11:26:24.807Z,13.45
2023-03-03T11:29:01.095Z,15.52
2023-03-03T11:31:38.959Z,14.40
2023-03-03T11:34:26.101Z,14.60
2023-03-03T11:37:04.093Z,13.05
2023-03-03T11:39:32.999Z,13.25
2023-03-03T11:42:19.343Z,15.00
2023-03-03T11:44:51.926Z,13.15
2023-03-03T11:47:35.489Z,15.50
2023-03-03T11:50:11.710Z,14.10
2023-03-03T11:52:43.946Z,11.75
2023-03-03T11:55:31.642Z,12.32
2023-03-03T11:58:20.699Z,12.02
2023-03-03T12:00:58.546Z,12.32
2023-03-03T12:03:45.103Z,13.05
2023-03-03T12:06:40.841Z,11.13
2023-03-03T12:09:17.060Z,12.55
2023-03-03T12:11:54.153Z,12.57
2023-03-03T12:14:45.329Z,11.15
2023-03-03T12:17:32.058Z,12.00
2023-03-03T12:20:23.831Z,11.10
2023-03-03T12:23:32.448Z,12.20
2023-03-03T12:26:08.733Z,11.27
2023-03-03T12:28:41.990Z,11.20
2023-03-03T12:31:38.908Z,11.55
2023-03-03T12:34:23.155Z,11.45
2023-03-03T12:37:07.958Z,11.90
2023-03-03T12:39:35.775Z,10.35
2023-03-03T12:42:29.550Z,10.95
2023-03-03T12:45:16.446Z,11.90
2023-03-03T12:48:07.881Z,10.63
2023-03-03T12:50:47.737Z,13.05
2023-03-03T12:53:57.121Z,13.32
2023-03-03T12:56:32.813Z,13.27
2023-03-03T12:59:42.781Z,12.82
2023-03-03T13:02:32.395Z,11.85
2023-03-03T13:05:24.590Z,12.13
2023-03-03T13:08:09.545Z,11.90
2023-03-03T13:10:54.694Z,12.10
2023-03-03T13:13:34.673Z,12.07
2023-03-03T13:16:17.059Z,11.77
2023-03-03T13:18:51.737Z,12.27
2023-03-03T13:21:48.660Z,10.30
2023-03-03T13:24:37.938Z,11.27
2023-03-03T13:27:10.783Z,10.83
2023-03-03T13:29:43.050Z,11.57
2023-03-03T13:32:17.911Z,12.43
2023-03-03T13:35:07.529Z,11.52
2023-03-03T13:37:43.427Z,11.13
2023-03-03T13:40:17.468Z,12.53
2023-03-03T13:42:47.739Z,11.23
2023-03-03T13:45:27.336Z,10.10
2023-03-03T13:48:35.558Z,10.00
2023-03-03T13:51:31.139Z,13.85
2023-03-03T13:54:24.871Z,10.93
2023-03-03T13:57:24.671Z,12.43
2023-03-03T14:00:26.104Z,10.60
2023-03-03T14:02:53.836Z,10.70
2023-03-03T14:05:36.403Z,11.32
2023-03-03T14:08:12.549Z,12.60
2023-03-03T14:10:52.080Z,11.43
2023-03-03T14:13:26.674Z,12.52
2023-03-03T14:16:21.623Z,12.05
2023-03-03T14:18:59.898Z,11.85
2023-03-03T14:21:38.272Z,11.05
2023-03-03T14:24:17.201Z,12.00
2023-03-03T14:26:52.858Z,11.52
2023-03-03T14:29:26.230Z,12.50
2023-03-03T14:31:55.096Z,12.75
2023-03-03T14:34:23.376Z,12.77
2023-03-03T14:36:57.383Z,11.93
2023-03-03T14:39:38.064Z,10.68
2023-03-03T14:42:38.221Z,11.02
2023-03-03T14:45:30.863Z,11.32
2023-03-03T14:47:59.846Z,11.23
2023-03-03T14:50:41.288Z,11.98
2023-03-03T14:53:19.995Z,10.98
2023-03-03T14:55:53.502Z,10.95
2023-03-03T14:58:31.850Z,11.90
2023-03-03T15:01:32.008Z,10.18
2023-03-03T15:04:03.721Z,9.57
2023-03-03T15:06:42.687Z,10.40
2023-03-03T15:09:33.863Z,11.15
2023-03-03T15:12:03.649Z,10.43
2023-03-03T15:14:44.426Z,9.45
2023-03-03T15:17:27.085Z,11.05
2023-03-03T15:20:22.548Z,9.70
2023-03-03T15:23:18.523Z,10.47
2023-03-03T15:26:28.134Z,9.88
2023-03-03T15:29:07.262Z,9.33
2023-03-03T15:31:59.532Z,16.37
2023-03-03T15:34:35.893Z,11.53
2023-03-03T15:37:12.320Z,10.10
2023-03-03T15:39:59.057Z,9.47
2023-03-03T15:42:39.907Z,11.37
2023-03-03T15:45:26.080Z,10.20
2023-03-03T15:48:29.629Z,10.80
2023-03-03T15:51:00.050Z,11.83
2023-03-03T15:53:58.091Z,11.57
2023-03-03T15:56:36.251Z,10.00
2023-03-03T15:59:25.119Z,10.47
2023-03-03T16:02:16.547Z,11.57
2023-03-03T16:04:58.237Z,14.33
2023-03-03T16:07:53.178Z,14.67
2023-03-03T16:10:58.012Z,12.00
2023-03-03T16:13:46.305Z,13.23
2023-03-03T16:16:35.510Z,13.30
2023-03-03T16:19:15.042Z,12.50
2023-03-03T16:22:03.430Z,12.07
2023-03-03T16:24:55.774Z,14.17
2023-03-03T16:27:35.920Z,13.83
2023-03-03T16:30:26.857Z,13.70
2023-03-03T16:33:10.788Z,12.77
2023-03-03T16:35:44.889Z,14.23
2023-03-03T16:38:22.578Z,12.70
2023-03-03T16:40:52.701Z,13.33
2023-03-03T16:43:19.928Z,13.53
2023-03-03T16:45:48.388Z,14.73
2023-03-03T16:48:43.550Z,13.17
2023-03-03T16:51:22.469Z,14.07
2023-03-03T16:54:03.063Z,14.43
2023-03-03T16:56:55.653Z,13.37
2023-03-03T16:59:39.154Z,13.70
2023-03-03T17:02:19.351Z,14.43
2023-03-03T17:05:03.166Z,14.77
2023-03-03T17:07:54.859Z,13.77
2023-03-03T17:10:39.559Z,13.10
2023-03-03T17:13:40.772Z,12.20
2023-03-03T17:16:26.233Z,13.60
2023-03-03T17:19:05.578Z,12.13
2023-03-03T17:22:03.837Z,15.03
2023-03-03T17:24:56.385Z,12.43
2023-03-03T17:27:38.267Z,13.37
2023-03-03T17:30:14.879Z,12.57
2023-03-03T17:33:15.760Z,13.53
2023-03-03T17:35:57.229Z,11.77
2023-03-03T17:38:30.854Z,10.93
2023-03-03T17:41:24.685Z,13.43
2023-03-03T17:44:38.134Z,13.23
2023-03-03T17:47:10.006Z,14.03
2023-03-03T17:49:55.250Z,13.83
2023-03-03T17:52:38.418Z,13.40
2023-03-03T17:55:29.750Z,12.03
2023-03-03T17:58:18.760Z,12.30
2023-03-03T18:01:08.077Z,12.47
2023-03-03T18:03:47.669Z,11.60
2023-03-03T18:06:39.135Z,10.50
2023-03-03T18:09:37.467Z,11.50
2023-03-03T18:12:48.309Z,10.17
2023-03-03T18:15:24.289Z,9.53
2023-03-03T18:18:38.382Z,11.70
2023-03-03T18:21:21.124Z,11.00
2023-03-03T18:23:49.393Z,11.80
2023-03-03T18:26:28.883Z,10.97
2023-03-03T18:29:19.838Z,11.07
2023-03-03T18:31:53.227Z,11.93
2023-03-03T18:34:20.666Z,11.90
2023-03-03T18:37:21.742Z,9.13
2023-03-03T18:40:10.350Z,10.30
2023-03-03T18:42:38.104Z,9.97
2023-03-03T18:45:21.424Z,10.40
2023-03-03T18:48:11.352Z,12.10
2023-03-03T18:50:41.442Z,11.13
2023-03-03T18:53:29.532Z,11.13
2023-03-03T18:56:01.929Z,10.77
2023-03-03T18:58:43.393Z,11.00
2023-03-03T19:01:11.095Z,10.63
2023-03-03T19:04:02.357Z,11.97
2023-03-03T19:06:52.595Z,10.73
2023-03-03T19:09:41.083Z,10.50
2023-03-03T19:12:10.872Z,10.30
2023-03-03T19:14:42.218Z,11.10
2023-03-03T19:17:20.351Z,10.67
2023-03-03T19:20:14.196Z,10.53
2023-03-03T19:22:44.730Z,11.43
2023-03-03T19:25:12.386Z,10.23
2023-03-03T19:27:48.476Z,10.27
2023-03-03T19:30:42.051Z,9.17
2023-03-03T19:33:21.530Z,10.30
2023-03-03T19:36:13.571Z,8.93
2023-03-03T19:39:06.003Z,9.43
2023-03-03T19:42:02.359Z,9.83
2023-03-03T19:44:49.683Z,9.60
2023-03-03T19:47:47.769Z,10.93
2023-03-03T19:50:25.261Z,10.43
2023-03-03T19:53:07.535Z,9.07
2023-03-03T19:56:03.048Z,8.97
2023-03-03T19:59:09.556Z,8.37
2023-03-03T20:01:46.878Z,9.03
2023-03-03T20:04:23.233Z,9.90
2023-03-03T20:06:56.533Z,7.97
2023-03-03T20:09:28.934Z,8.47
2023-03-03T20:12:14.622Z,9.53
2023-03-03T20:14:49.055Z,8.93
2023-03-03T20:17:44.561Z,8.77
2023-03-03T20:20:23.926Z,9.93
2023-03-03T20:23:16.810Z,9.17
2023-03-03T20:25:48.165Z,10.87
2023-03-03T20:28:53.873Z,8.97
2023-03-03T20:32:07.603Z,9.30
2023-03-03T20:35:12.768Z,7.63
2023-03-03T20:37:52.260Z,8.57
2023-03-03T20:40:39.805Z,9.93
2023-03-03T20:43:27.237Z,8.50
2023-03-03T20:46:23.690Z,9.33
2023-03-03T20:49:11.344Z,8.53
2023-03-03T20:51:47.545Z,8.70
2023-03-03T20:54:21.932Z,8.77
2023-03-03T20:57:00.729Z,9.47
2023-03-03T20:59:37.585Z,9.73
2023-03-03T21:02:26.990Z,8.07
2023-03-03T21:05:26.400Z,8.97
2023-03-03T21:08:04.313Z,8.90
2023-03-03T21:10:36.490Z,8.40
2023-03-03T21:13:32.449Z,9.33
2023-03-03T21:16:03.667Z,7.77
2023-03-03T21:18:31.823Z,10.00
2023-03-03T21:20:59.309Z,8.43
2023-03-03T21:23:26.628Z,8.83
2023-03-03T21:25:55.280Z,9.00
2023-03-03T21:28:31.959Z,9.07
2023-03-03T21:31:17.223Z,9.87
2023-03-03T21:33:44.556Z,9.27
2023-03-03T21:36:14.722Z,9.00
2023-03-03T21:38:42.608Z,10.17
2023-03-03T21:41:10.021Z,9.80
2023-03-03T21:43:40.121Z,9.03
2023-03-03T21:46:07.750Z,9.53
2023-03-03T21:48:35.112Z,8.57
2023-03-03T21:51:02.642Z,9.57
2023-03-03T21:53:30.539Z,10.23
2023-03-03T21:55:58.205Z,10.90
2023-03-03T21:58:25.575Z,10.43
2023-03-03T22:00:53.028Z,9.30
2023-03-03T22:03:20.807Z,9.63
2023-03-03T22:05:51.247Z,10.43
2023-03-03T22:08:22.502Z,10.13
2023-03-03T22:10:53.757Z,9.90
2023-03-03T22:13:21.611Z,11.27
2023-03-03T22:15:49.312Z,10.60
2023-03-03T22:18:18.305Z,10.03
2023-03-03T22:20:46.935Z,11.37
2023-03-03T22:23:15.129Z,10.83
2023-03-03T22:25:42.773Z,11.20
2023-03-03T22:28:10.225Z,10.93
2023-03-03T22:30:37.599Z,9.80
2023-03-03T22:33:05.014Z,10.30
2023-03-03T22:35:32.513Z,11.37
2023-03-03T22:38:00.058Z,9.97
2023-03-03T22:40:27.419Z,10.90
2023-03-03T22:42:54.702Z,10.03
2023-03-03T22:45:22.076Z,9.63
2023-03-03T22:47:49.539Z,10.03
2023-03-03T22:50:17.562Z,10.63
2023-03-03T22:52:45.138Z,10.20
2023-03-03T22:55:13.321Z,10.10
2023-03-03T22:57:40.826Z,10.87
2023-03-03T23:00:11.711Z,9.90
2023-03-03T23:02:39.612Z,10.63
2023-03-03T23:05:09.995Z,9.43
2023-03-03T23:07:39.803Z,10.97
2023-03-03T23:10:08.701Z,10.80
2023-03-03T23:12:36.041Z,9.63
2023-03-03T23:15:06.375Z,9.93
2023-03-03T23:17:33.564Z,10.40
2023-03-03T23:20:00.918Z,10.77
2023-03-03T23:22:28.131Z,9.83
2023-03-03T23:24:55.346Z,9.53
2023-03-03T23:27:22.781Z,9.83
2023-03-03T23:29:50.229Z,9.43
2023-03-03T23:32:17.899Z,9.23
2023-03-03T23:34:45.178Z,10.90
2023-03-03T23:37:12.578Z,9.10
2023-03-03T23:39:40.932Z,9.23
2023-03-03T23:42:08.158Z,9.80
2023-03-03T23:44:37.506Z,9.50
2023-03-03T23:47:06.031Z,9.73
2023-03-03T23:49:33.878Z,10.57
2023-03-03T23:52:02.050Z,9.87
2023-03-03T23:54:29.478Z,11.43
2023-03-03T23:56:57.008Z,9.87
2023-03-03T23:59:24.230Z,10.13
